sensor_id;sensor_type;location;lat;lon;timestamp;P1;durP1;ratioP1;P2;durP2;ratioP2
83245;SDS011;73140;46.754;17.714;2024-03-02T00:01:09;9.77;;;8.77;;
83245;SDS011;73140;46.754;17.714;2024-03-02T00:03:36;10.40;;;8.85;;
83245;SDS011;73140;46.754;17.714;2024-03-02T00:06:02;9.20;;;8.27;;
83245;SDS011;73140;46.754;17.714;2024-03-02T00:08:29;10.05;;;8.93;;
83245;SDS011;73140;46.754;17.714;2024-03-02T00:10:57;8.57;;;7.72;;
83245;SDS011;73140;46.754;17.714;2024-03-02T00:13:24;9.02;;;8.13;;
83245;SDS011;73140;46.754;17.714;2024-03-02T00:15:51;8.13;;;7.32;;
83245;SDS011;73140;46.754;17.714;2024-03-02T00:18:20;7.75;;;7.05;;
83245;SDS011;73140;46.754;17.714;2024-03-02T00:20:52;8.27;;;7.45;;
83245;SDS011;73140;46.754;17.714;2024-03-02T00:23:19;9.75;;;8.85;;
83245;SDS011;73140;46.754;17.714;2024-03-02T00:25:48;10.10;;;9.10;;
83245;SDS011;73140;46.754;17.714;2024-03-02T00:28:16;11.82;;;10.63;;
83245;SDS011;73140;46.754;17.714;2024-03-02T00:33:33;13.82;;;12.48;;
83245;SDS011;73140;46.754;17.714;2024-03-02T00:36:01;14.35;;;12.95;;
83245;SDS011;73140;46.754;17.714;2024-03-02T00:38:28;14.25;;;12.75;;
83245;SDS011;73140;46.754;17.714;2024-03-02T00:40:55;15.13;;;13.55;;
83245;SDS011;73140;46.754;17.714;2024-03-02T00:46:09;13.75;;;12.35;;
83245;SDS011;73140;46.754;17.714;2024-03-02T00:48:38;13.80;;;12.50;;
83245;SDS011;73140;46.754;17.714;2024-03-02T00:51:05;12.68;;;11.40;;
83245;SDS011;73140;46.754;17.714;2024-03-02T00:53:31;12.23;;;11.05;;
83245;SDS011;73140;46.754;17.714;2024-03-02T00:56:00;11.90;;;10.43;;
83245;SDS011;73140;46.754;17.714;2024-03-02T00:58:27;10.40;;;9.30;;
83245;SDS011;73140;46.754;17.714;2024-03-02T01:00:53;13.57;;;12.27;;
83245;SDS011;73140;46.754;17.714;2024-03-02T01:03:21;13.55;;;12.27;;
83245;SDS011;73140;46.754;17.714;2024-03-02T01:05:48;13.93;;;12.60;;
83245;SDS011;73140;46.754;17.714;2024-03-02T01:08:14;14.20;;;12.80;;
83245;SDS011;73140;46.754;17.714;2024-03-02T01:10:40;17.05;;;15.35;;
83245;SDS011;73140;46.754;17.714;2024-03-02T01:13:06;18.30;;;16.40;;
83245;SDS011;73140;46.754;17.714;2024-03-02T01:15:33;17.98;;;16.05;;
83245;SDS011;73140;46.754;17.714;2024-03-02T01:17:59;17.67;;;15.80;;
83245;SDS011;73140;46.754;17.714;2024-03-02T01:20:28;19.15;;;17.13;;
83245;SDS011;73140;46.754;17.714;2024-03-02T01:22:55;18.75;;;16.85;;
83245;SDS011;73140;46.754;17.714;2024-03-02T01:25:21;17.25;;;15.52;;
83245;SDS011;73140;46.754;17.714;2024-03-02T01:27:47;18.52;;;16.52;;
83245;SDS011;73140;46.754;17.714;2024-03-02T01:30:14;16.83;;;15.05;;
83245;SDS011;73140;46.754;17.714;2024-03-02T01:32:40;15.10;;;13.63;;
83245;SDS011;73140;46.754;17.714;2024-03-02T01:35:06;14.25;;;12.75;;
83245;SDS011;73140;46.754;17.714;2024-03-02T01:37:32;13.75;;;12.45;;
83245;SDS011;73140;46.754;17.714;2024-03-02T01:40:00;12.55;;;11.35;;
83245;SDS011;73140;46.754;17.714;2024-03-02T01:42:26;12.93;;;11.68;;
83245;SDS011;73140;46.754;17.714;2024-03-02T01:44:52;12.50;;;11.30;;
83245;SDS011;73140;46.754;17.714;2024-03-02T01:47:18;12.90;;;11.70;;
83245;SDS011;73140;46.754;17.714;2024-03-02T01:49:43;12.32;;;11.23;;
83245;SDS011;73140;46.754;17.714;2024-03-02T01:52:09;12.40;;;11.20;;
83245;SDS011;73140;46.754;17.714;2024-03-02T01:54:36;12.10;;;10.90;;
83245;SDS011;73140;46.754;17.714;2024-03-02T01:57:04;12.50;;;11.40;;
83245;SDS011;73140;46.754;17.714;2024-03-02T01:59:30;11.45;;;10.35;;
83245;SDS011;73140;46.754;17.714;2024-03-02T02:01:56;12.05;;;10.95;;
83245;SDS011;73140;46.754;17.714;2024-03-02T02:04:22;11.52;;;10.43;;
83245;SDS011;73140;46.754;17.714;2024-03-02T02:06:52;12.80;;;11.50;;
83245;SDS011;73140;46.754;17.714;2024-03-02T02:09:18;11.85;;;10.70;;
83245;SDS011;73140;46.754;17.714;2024-03-02T02:11:44;10.68;;;9.65;;
83245;SDS011;73140;46.754;17.714;2024-03-02T02:14:12;12.05;;;10.85;;
83245;SDS011;73140;46.754;17.714;2024-03-02T02:16:38;10.55;;;9.65;;
83245;SDS011;73140;46.754;17.714;2024-03-02T02:19:04;11.25;;;10.25;;
83245;SDS011;73140;46.754;17.714;2024-03-02T02:21:32;11.40;;;10.30;;
83245;SDS011;73140;46.754;17.714;2024-03-02T02:23:57;11.52;;;9.98;;
83245;SDS011;73140;46.754;17.714;2024-03-02T02:26:23;11.57;;;10.48;;
83245;SDS011;73140;46.754;17.714;2024-03-02T02:28:50;12.00;;;10.75;;
83245;SDS011;73140;46.754;17.714;2024-03-02T02:31:16;11.23;;;10.05;;
83245;SDS011;73140;46.754;17.714;2024-03-02T02:33:41;11.50;;;10.40;;
83245;SDS011;73140;46.754;17.714;2024-03-02T02:36:08;11.93;;;10.73;;
83245;SDS011;73140;46.754;17.714;2024-03-02T02:38:40;10.95;;;9.90;;
83245;SDS011;73140;46.754;17.714;2024-03-02T02:41:09;11.30;;;9.95;;
83245;SDS011;73140;46.754;17.714;2024-03-02T02:43:35;10.80;;;9.52;;
83245;SDS011;73140;46.754;17.714;2024-03-02T02:46:01;10.07;;;9.18;;
83245;SDS011;73140;46.754;17.714;2024-03-02T02:48:27;11.63;;;10.43;;
83245;SDS011;73140;46.754;17.714;2024-03-02T02:50:53;10.63;;;9.52;;
83245;SDS011;73140;46.754;17.714;2024-03-02T02:53:19;10.45;;;9.38;;
83245;SDS011;73140;46.754;17.714;2024-03-02T02:55:46;9.88;;;8.88;;
83245;SDS011;73140;46.754;17.714;2024-03-02T02:58:12;9.88;;;8.90;;
83245;SDS011;73140;46.754;17.714;2024-03-02T03:00:38;10.00;;;9.00;;
83245;SDS011;73140;46.754;17.714;2024-03-02T03:03:05;9.05;;;7.93;;
83245;SDS011;73140;46.754;17.714;2024-03-02T03:05:31;9.93;;;9.02;;
83245;SDS011;73140;46.754;17.714;2024-03-02T03:07:57;9.93;;;8.93;;
83245;SDS011;73140;46.754;17.714;2024-03-02T03:10:23;8.93;;;8.05;;
83245;SDS011;73140;46.754;17.714;2024-03-02T03:12:52;8.90;;;8.10;;
83245;SDS011;73140;46.754;17.714;2024-03-02T03:15:19;9.50;;;8.60;;
83245;SDS011;73140;46.754;17.714;2024-03-02T03:17:44;8.85;;;8.05;;
83245;SDS011;73140;46.754;17.714;2024-03-02T03:20:12;8.65;;;7.82;;
83245;SDS011;73140;46.754;17.714;2024-03-02T03:22:39;9.00;;;8.20;;
83245;SDS011;73140;46.754;17.714;2024-03-02T03:25:05;9.13;;;8.23;;
83245;SDS011;73140;46.754;17.714;2024-03-02T03:27:35;8.45;;;7.65;;
83245;SDS011;73140;46.754;17.714;2024-03-02T03:30:03;8.50;;;7.70;;
83245;SDS011;73140;46.754;17.714;2024-03-02T03:32:29;9.00;;;8.10;;
83245;SDS011;73140;46.754;17.714;2024-03-02T03:34:55;9.10;;;8.25;;
83245;SDS011;73140;46.754;17.714;2024-03-02T03:37:21;10.65;;;9.55;;
83245;SDS011;73140;46.754;17.714;2024-03-02T03:39:47;9.63;;;8.70;;
83245;SDS011;73140;46.754;17.714;2024-03-02T03:42:12;9.10;;;8.20;;
83245;SDS011;73140;46.754;17.714;2024-03-02T03:44:38;10.40;;;9.20;;
83245;SDS011;73140;46.754;17.714;2024-03-02T03:47:07;10.20;;;9.10;;
83245;SDS011;73140;46.754;17.714;2024-03-02T03:49:33;10.23;;;9.15;;
83245;SDS011;73140;46.754;17.714;2024-03-02T03:51:59;10.95;;;9.85;;
83245;SDS011;73140;46.754;17.714;2024-03-02T03:54:25;10.25;;;9.25;;
83245;SDS011;73140;46.754;17.714;2024-03-02T03:56:51;9.75;;;8.77;;
83245;SDS011;73140;46.754;17.714;2024-03-02T03:59:17;9.98;;;8.88;;
83245;SDS011;73140;46.754;17.714;2024-03-02T04:01:43;10.35;;;9.35;;
83245;SDS011;73140;46.754;17.714;2024-03-02T04:04:11;9.60;;;8.65;;
83245;SDS011;73140;46.754;17.714;2024-03-02T04:06:37;8.77;;;7.88;;
83245;SDS011;73140;46.754;17.714;2024-03-02T04:09:03;9.65;;;8.70;;
83245;SDS011;73140;46.754;17.714;2024-03-02T04:11:29;9.45;;;8.57;;
83245;SDS011;73140;46.754;17.714;2024-03-02T04:13:55;9.65;;;8.75;;
83245;SDS011;73140;46.754;17.714;2024-03-02T04:16:21;9.68;;;8.77;;
83245;SDS011;73140;46.754;17.714;2024-03-02T04:18:48;9.93;;;9.02;;
83245;SDS011;73140;46.754;17.714;2024-03-02T04:21:15;9.90;;;8.90;;
83245;SDS011;73140;46.754;17.714;2024-03-02T04:23:41;9.98;;;8.95;;
83245;SDS011;73140;46.754;17.714;2024-03-02T04:26:07;11.43;;;10.32;;
83245;SDS011;73140;46.754;17.714;2024-03-02T04:28:33;12.10;;;10.43;;
83245;SDS011;73140;46.754;17.714;2024-03-02T04:30:59;12.57;;;11.27;;
83245;SDS011;73140;46.754;17.714;2024-03-02T04:33:25;11.77;;;10.57;;
83245;SDS011;73140;46.754;17.714;2024-03-02T04:35:51;10.10;;;9.10;;
83245;SDS011;73140;46.754;17.714;2024-03-02T04:38:18;10.90;;;9.80;;
83245;SDS011;73140;46.754;17.714;2024-03-02T04:40:44;10.55;;;9.48;;
83245;SDS011;73140;46.754;17.714;2024-03-02T04:43:10;11.18;;;9.95;;
83245;SDS011;73140;46.754;17.714;2024-03-02T04:45:40;10.93;;;9.82;;
83245;SDS011;73140;46.754;17.714;2024-03-02T04:48:06;10.63;;;9.52;;
83245;SDS011;73140;46.754;17.714;2024-03-02T04:50:32;9.35;;;8.43;;
83245;SDS011;73140;46.754;17.714;2024-03-02T04:52:58;9.48;;;8.57;;
83245;SDS011;73140;46.754;17.714;2024-03-02T04:55:26;8.50;;;7.70;;
83245;SDS011;73140;46.754;17.714;2024-03-02T04:57:51;9.55;;;8.65;;
83245;SDS011;73140;46.754;17.714;2024-03-02T05:00:20;9.02;;;8.13;;
83245;SDS011;73140;46.754;17.714;2024-03-02T05:02:46;9.40;;;8.40;;
83245;SDS011;73140;46.754;17.714;2024-03-02T05:05:11;9.02;;;7.80;;
83245;SDS011;73140;46.754;17.714;2024-03-02T05:07:38;8.02;;;7.20;;
83245;SDS011;73140;46.754;17.714;2024-03-02T05:10:04;9.18;;;8.27;;
83245;SDS011;73140;46.754;17.714;2024-03-02T05:12:31;8.77;;;7.88;;
83245;SDS011;73140;46.754;17.714;2024-03-02T05:15:20;8.43;;;7.63;;
83245;SDS011;73140;46.754;17.714;2024-03-02T05:17:47;7.60;;;6.85;;
83245;SDS011;73140;46.754;17.714;2024-03-02T05:20:12;8.30;;;7.22;;
83245;SDS011;73140;46.754;17.714;2024-03-02T05:22:38;8.38;;;7.57;;
83245;SDS011;73140;46.754;17.714;2024-03-02T05:25:05;9.15;;;8.25;;
83245;SDS011;73140;46.754;17.714;2024-03-02T05:27:33;8.48;;;7.57;;
83245;SDS011;73140;46.754;17.714;2024-03-02T05:29:59;8.30;;;7.40;;
83245;SDS011;73140;46.754;17.714;2024-03-02T05:32:25;8.52;;;7.50;;
83245;SDS011;73140;46.754;17.714;2024-03-02T05:34:51;9.27;;;7.82;;
83245;SDS011;73140;46.754;17.714;2024-03-02T05:37:17;8.20;;;7.40;;
83245;SDS011;73140;46.754;17.714;2024-03-02T05:39:42;8.45;;;7.65;;
83245;SDS011;73140;46.754;17.714;2024-03-02T05:42:09;7.80;;;7.00;;
83245;SDS011;73140;46.754;17.714;2024-03-02T05:44:36;8.20;;;7.40;;
83245;SDS011;73140;46.754;17.714;2024-03-02T05:47:02;8.85;;;7.72;;
83245;SDS011;73140;46.754;17.714;2024-03-02T05:49:29;8.70;;;7.80;;
83245;SDS011;73140;46.754;17.714;2024-03-02T05:51:55;8.38;;;7.57;;
83245;SDS011;73140;46.754;17.714;2024-03-02T05:54:21;8.10;;;7.30;;
83245;SDS011;73140;46.754;17.714;2024-03-02T05:56:47;8.18;;;7.38;;
83245;SDS011;73140;46.754;17.714;2024-03-02T05:59:13;7.80;;;7.00;;
83245;SDS011;73140;46.754;17.714;2024-03-02T06:01:41;7.88;;;7.03;;
83245;SDS011;73140;46.754;17.714;2024-03-02T06:04:08;7.28;;;6.55;;
83245;SDS011;73140;46.754;17.714;2024-03-02T06:06:34;8.13;;;7.32;;
83245;SDS011;73140;46.754;17.714;2024-03-02T06:09:01;7.80;;;6.93;;
83245;SDS011;73140;46.754;17.714;2024-03-02T06:11:28;8.35;;;7.45;;
83245;SDS011;73140;46.754;17.714;2024-03-02T06:13:53;7.55;;;6.75;;
83245;SDS011;73140;46.754;17.714;2024-03-02T06:16:19;7.57;;;6.82;;
83245;SDS011;73140;46.754;17.714;2024-03-02T06:18:47;7.65;;;6.93;;
83245;SDS011;73140;46.754;17.714;2024-03-02T06:21:13;8.23;;;7.25;;
83245;SDS011;73140;46.754;17.714;2024-03-02T06:23:39;7.68;;;6.88;;
83245;SDS011;73140;46.754;17.714;2024-03-02T06:26:04;8.10;;;7.28;;
83245;SDS011;73140;46.754;17.714;2024-03-02T06:28:30;7.53;;;6.72;;
83245;SDS011;73140;46.754;17.714;2024-03-02T06:30:56;7.20;;;6.50;;
83245;SDS011;73140;46.754;17.714;2024-03-02T06:33:22;8.10;;;7.15;;
83245;SDS011;73140;46.754;17.714;2024-03-02T06:35:49;8.68;;;7.05;;
83245;SDS011;73140;46.754;17.714;2024-03-02T06:38:15;8.50;;;7.65;;
83245;SDS011;73140;46.754;17.714;2024-03-02T06:40:41;16.15;;;8.80;;
83245;SDS011;73140;46.754;17.714;2024-03-02T06:43:07;9.13;;;8.10;;
83245;SDS011;73140;46.754;17.714;2024-03-02T06:45:34;9.68;;;8.68;;
83245;SDS011;73140;46.754;17.714;2024-03-02T06:48:00;10.07;;;8.93;;
83245;SDS011;73140;46.754;17.714;2024-03-02T06:50:26;9.52;;;8.10;;
83245;SDS011;73140;46.754;17.714;2024-03-02T06:52:53;10.20;;;9.20;;
83245;SDS011;73140;46.754;17.714;2024-03-02T06:55:21;10.07;;;9.07;;
83245;SDS011;73140;46.754;17.714;2024-03-02T06:57:47;8.88;;;8.07;;
83245;SDS011;73140;46.754;17.714;2024-03-02T07:00:13;10.13;;;8.23;;
83245;SDS011;73140;46.754;17.714;2024-03-02T07:02:39;10.40;;;9.30;;
83245;SDS011;73140;46.754;17.714;2024-03-02T07:05:08;9.35;;;8.35;;
83245;SDS011;73140;46.754;17.714;2024-03-02T07:07:35;9.25;;;8.35;;
83245;SDS011;73140;46.754;17.714;2024-03-02T07:10:03;10.00;;;8.77;;
83245;SDS011;73140;46.754;17.714;2024-03-02T07:12:30;8.70;;;7.90;;
83245;SDS011;73140;46.754;17.714;2024-03-02T07:14:56;9.25;;;8.20;;
83245;SDS011;73140;46.754;17.714;2024-03-02T07:17:28;8.98;;;8.07;;
83245;SDS011;73140;46.754;17.714;2024-03-02T07:19:54;8.15;;;7.35;;
83245;SDS011;73140;46.754;17.714;2024-03-02T07:22:20;8.90;;;8.00;;
83245;SDS011;73140;46.754;17.714;2024-03-02T07:24:47;7.85;;;7.15;;
83245;SDS011;73140;46.754;17.714;2024-03-02T07:27:14;8.85;;;7.97;;
83245;SDS011;73140;46.754;17.714;2024-03-02T07:29:41;8.32;;;7.55;;
83245;SDS011;73140;46.754;17.714;2024-03-02T07:32:08;8.57;;;7.78;;
83245;SDS011;73140;46.754;17.714;2024-03-02T07:34:34;7.95;;;7.15;;
83245;SDS011;73140;46.754;17.714;2024-03-02T07:37:00;7.75;;;7.05;;
83245;SDS011;73140;46.754;17.714;2024-03-02T07:39:26;7.78;;;7.07;;
83245;SDS011;73140;46.754;17.714;2024-03-02T07:41:52;8.15;;;7.38;;
83245;SDS011;73140;46.754;17.714;2024-03-02T07:44:20;8.23;;;7.43;;
83245;SDS011;73140;46.754;17.714;2024-03-02T07:46:46;7.93;;;7.18;;
83245;SDS011;73140;46.754;17.714;2024-03-02T07:49:15;7.25;;;6.55;;
83245;SDS011;73140;46.754;17.714;2024-03-02T07:51:41;8.00;;;7.18;;
83245;SDS011;73140;46.754;17.714;2024-03-02T07:54:07;7.60;;;6.82;;
83245;SDS011;73140;46.754;17.714;2024-03-02T07:56:33;7.78;;;7.07;;
83245;SDS011;73140;46.754;17.714;2024-03-02T07:59:00;7.43;;;6.72;;
83245;SDS011;73140;46.754;17.714;2024-03-02T08:01:28;7.13;;;6.43;;
83245;SDS011;73140;46.754;17.714;2024-03-02T08:03:55;7.10;;;6.43;;
83245;SDS011;73140;46.754;17.714;2024-03-02T08:06:23;6.68;;;6.07;;
83245;SDS011;73140;46.754;17.714;2024-03-02T08:08:52;7.00;;;6.35;;
83245;SDS011;73140;46.754;17.714;2024-03-02T08:11:19;6.78;;;6.18;;
83245;SDS011;73140;46.754;17.714;2024-03-02T08:13:45;7.57;;;6.78;;
83245;SDS011;73140;46.754;17.714;2024-03-02T08:16:10;8.27;;;7.47;;
83245;SDS011;73140;46.754;17.714;2024-03-02T08:18:38;7.18;;;6.47;;
83245;SDS011;73140;46.754;17.714;2024-03-02T08:21:04;6.50;;;5.90;;
83245;SDS011;73140;46.754;17.714;2024-03-02T08:23:32;7.50;;;6.70;;
83245;SDS011;73140;46.754;17.714;2024-03-02T08:25:58;7.32;;;6.60;;
83245;SDS011;73140;46.754;17.714;2024-03-02T08:28:24;7.47;;;6.78;;
83245;SDS011;73140;46.754;17.714;2024-03-02T08:30:50;6.90;;;6.30;;
83245;SDS011;73140;46.754;17.714;2024-03-02T08:33:16;7.20;;;6.50;;
83245;SDS011;73140;46.754;17.714;2024-03-02T08:35:43;7.30;;;6.60;;
83245;SDS011;73140;46.754;17.714;2024-03-02T08:38:09;6.78;;;6.05;;
83245;SDS011;73140;46.754;17.714;2024-03-02T08:40:35;6.82;;;6.13;;
83245;SDS011;73140;46.754;17.714;2024-03-02T08:43:01;7.15;;;6.45;;
83245;SDS011;73140;46.754;17.714;2024-03-02T08:45:27;7.78;;;7.05;;
83245;SDS011;73140;46.754;17.714;2024-03-02T08:47:53;6.93;;;6.22;;
83245;SDS011;73140;46.754;17.714;2024-03-02T08:50:19;7.00;;;6.40;;
83245;SDS011;73140;46.754;17.714;2024-03-02T08:52:46;7.55;;;5.82;;
83245;SDS011;73140;46.754;17.714;2024-03-02T08:55:12;6.10;;;5.50;;
83245;SDS011;73140;46.754;17.714;2024-03-02T08:57:38;6.53;;;5.93;;
83245;SDS011;73140;46.754;17.714;2024-03-02T09:00:05;6.90;;;6.15;;
83245;SDS011;73140;46.754;17.714;2024-03-02T09:02:33;6.45;;;5.80;;
83245;SDS011;73140;46.754;17.714;2024-03-02T09:04:59;6.07;;;5.47;;
83245;SDS011;73140;46.754;17.714;2024-03-02T09:07:25;6.57;;;5.97;;
83245;SDS011;73140;46.754;17.714;2024-03-02T09:09:52;6.10;;;5.50;;
83245;SDS011;73140;46.754;17.714;2024-03-02T09:12:18;7.55;;;6.07;;
83245;SDS011;73140;46.754;17.714;2024-03-02T09:14:44;6.40;;;5.80;;
83245;SDS011;73140;46.754;17.714;2024-03-02T09:17:12;6.88;;;6.18;;
83245;SDS011;73140;46.754;17.714;2024-03-02T09:19:39;6.22;;;5.70;;
83245;SDS011;73140;46.754;17.714;2024-03-02T09:22:05;5.80;;;5.22;;
83245;SDS011;73140;46.754;17.714;2024-03-02T09:24:31;5.90;;;5.30;;
83245;SDS011;73140;46.754;17.714;2024-03-02T09:26:59;6.20;;;5.60;;
83245;SDS011;73140;46.754;17.714;2024-03-02T09:29:25;6.78;;;6.07;;
83245;SDS011;73140;46.754;17.714;2024-03-02T09:31:51;6.25;;;5.65;;
83245;SDS011;73140;46.754;17.714;2024-03-02T09:34:17;6.10;;;5.55;;
83245;SDS011;73140;46.754;17.714;2024-03-02T09:36:43;8.80;;;6.00;;
83245;SDS011;73140;46.754;17.714;2024-03-02T09:39:09;6.80;;;6.20;;
83245;SDS011;73140;46.754;17.714;2024-03-02T09:41:36;6.47;;;5.88;;
83245;SDS011;73140;46.754;17.714;2024-03-02T09:44:04;7.05;;;6.40;;
83245;SDS011;73140;46.754;17.714;2024-03-02T09:46:31;6.75;;;6.13;;
83245;SDS011;73140;46.754;17.714;2024-03-02T09:48:57;6.63;;;6.03;;
83245;SDS011;73140;46.754;17.714;2024-03-02T09:51:24;6.70;;;6.10;;
83245;SDS011;73140;46.754;17.714;2024-03-02T09:53:50;6.47;;;5.88;;
83245;SDS011;73140;46.754;17.714;2024-03-02T09:56:16;7.00;;;6.00;;
83245;SDS011;73140;46.754;17.714;2024-03-02T09:58:43;6.63;;;6.00;;
83245;SDS011;73140;46.754;17.714;2024-03-02T10:01:11;6.97;;;6.28;;
83245;SDS011;73140;46.754;17.714;2024-03-02T10:03:37;6.53;;;5.85;;
83245;SDS011;73140;46.754;17.714;2024-03-02T10:08:49;6.20;;;5.60;;
83245;SDS011;73140;46.754;17.714;2024-03-02T10:14:05;6.30;;;5.70;;
83245;SDS011;73140;46.754;17.714;2024-03-02T10:16:37;6.22;;;5.63;;
83245;SDS011;73140;46.754;17.714;2024-03-02T10:19:15;6.40;;;5.80;;
83245;SDS011;73140;46.754;17.714;2024-03-02T10:21:44;5.97;;;5.45;;
83245;SDS011;73140;46.754;17.714;2024-03-02T10:24:10;6.55;;;5.95;;
83245;SDS011;73140;46.754;17.714;2024-03-02T10:26:38;6.18;;;5.57;;
83245;SDS011;73140;46.754;17.714;2024-03-02T10:29:04;6.38;;;5.78;;
83245;SDS011;73140;46.754;17.714;2024-03-02T10:31:30;6.82;;;6.13;;
83245;SDS011;73140;46.754;17.714;2024-03-02T10:33:57;6.68;;;5.97;;
83245;SDS011;73140;46.754;17.714;2024-03-02T10:36:25;5.88;;;5.28;;
83245;SDS011;73140;46.754;17.714;2024-03-02T10:38:51;6.60;;;6.00;;
83245;SDS011;73140;46.754;17.714;2024-03-02T10:41:20;6.75;;;6.07;;
83245;SDS011;73140;46.754;17.714;2024-03-02T10:43:49;6.45;;;5.82;;
83245;SDS011;73140;46.754;17.714;2024-03-02T10:46:17;6.65;;;6.00;;
83245;SDS011;73140;46.754;17.714;2024-03-02T10:48:45;7.05;;;6.38;;
83245;SDS011;73140;46.754;17.714;2024-03-02T10:51:13;6.70;;;6.10;;
83245;SDS011;73140;46.754;17.714;2024-03-02T10:53:40;7.15;;;6.45;;
83245;SDS011;73140;46.754;17.714;2024-03-02T10:56:07;6.70;;;6.00;;
83245;SDS011;73140;46.754;17.714;2024-03-02T10:58:34;6.28;;;5.70;;
83245;SDS011;73140;46.754;17.714;2024-03-02T11:01:03;6.80;;;6.15;;
83245;SDS011;73140;46.754;17.714;2024-03-02T11:03:29;6.75;;;6.13;;
83245;SDS011;73140;46.754;17.714;2024-03-02T11:06:00;6.07;;;5.57;;
83245;SDS011;73140;46.754;17.714;2024-03-02T11:08:33;6.57;;;5.97;;
83245;SDS011;73140;46.754;17.714;2024-03-02T11:11:06;6.72;;;6.13;;
83245;SDS011;73140;46.754;17.714;2024-03-02T11:13:38;6.82;;;6.13;;
83245;SDS011;73140;46.754;17.714;2024-03-02T11:16:12;6.63;;;5.93;;
83245;SDS011;73140;46.754;17.714;2024-03-02T11:18:45;6.95;;;6.25;;
83245;SDS011;73140;46.754;17.714;2024-03-02T11:21:12;6.93;;;6.22;;
83245;SDS011;73140;46.754;17.714;2024-03-02T11:23:40;7.40;;;6.40;;
83245;SDS011;73140;46.754;17.714;2024-03-02T11:26:21;6.47;;;5.88;;
83245;SDS011;73140;46.754;17.714;2024-03-02T11:28:49;7.07;;;6.38;;
83245;SDS011;73140;46.754;17.714;2024-03-02T11:31:15;6.90;;;6.20;;
83245;SDS011;73140;46.754;17.714;2024-03-02T11:33:41;7.57;;;6.88;;
83245;SDS011;73140;46.754;17.714;2024-03-02T11:36:08;6.28;;;5.68;;
83245;SDS011;73140;46.754;17.714;2024-03-02T11:38:35;6.35;;;5.75;;
83245;SDS011;73140;46.754;17.714;2024-03-02T11:41:05;7.53;;;6.72;;
83245;SDS011;73140;46.754;17.714;2024-03-02T11:43:36;6.90;;;6.30;;
83245;SDS011;73140;46.754;17.714;2024-03-02T11:46:05;7.30;;;6.60;;
83245;SDS011;73140;46.754;17.714;2024-03-02T11:48:35;7.05;;;6.45;;
83245;SDS011;73140;46.754;17.714;2024-03-02T11:51:02;6.85;;;6.22;;
83245;SDS011;73140;46.754;17.714;2024-03-02T11:53:28;6.93;;;6.32;;
83245;SDS011;73140;46.754;17.714;2024-03-02T11:55:58;8.13;;;7.32;;
83245;SDS011;73140;46.754;17.714;2024-03-02T11:58:25;7.68;;;6.90;;
83245;SDS011;73140;46.754;17.714;2024-03-02T12:00:53;7.63;;;6.85;;
83245;SDS011;73140;46.754;17.714;2024-03-02T12:03:21;7.38;;;6.68;;
83245;SDS011;73140;46.754;17.714;2024-03-02T12:05:48;7.13;;;6.43;;
83245;SDS011;73140;46.754;17.714;2024-03-02T12:08:15;7.28;;;6.68;;
83245;SDS011;73140;46.754;17.714;2024-03-02T12:10:42;7.53;;;6.85;;
83245;SDS011;73140;46.754;17.714;2024-03-02T12:13:09;8.05;;;7.25;;
83245;SDS011;73140;46.754;17.714;2024-03-02T12:15:38;8.13;;;7.38;;
83245;SDS011;73140;46.754;17.714;2024-03-02T12:18:05;8.20;;;7.50;;
83245;SDS011;73140;46.754;17.714;2024-03-02T12:20:32;8.68;;;7.88;;
83245;SDS011;73140;46.754;17.714;2024-03-02T12:22:59;8.63;;;7.82;;
83245;SDS011;73140;46.754;17.714;2024-03-02T12:25:26;8.15;;;7.43;;
83245;SDS011;73140;46.754;17.714;2024-03-02T12:27:53;8.20;;;7.40;;
83245;SDS011;73140;46.754;17.714;2024-03-02T12:30:21;8.50;;;7.72;;
83245;SDS011;73140;46.754;17.714;2024-03-02T12:32:49;7.50;;;6.80;;
83245;SDS011;73140;46.754;17.714;2024-03-02T12:35:15;7.57;;;6.88;;
83245;SDS011;73140;46.754;17.714;2024-03-02T12:37:43;7.72;;;6.93;;
83245;SDS011;73140;46.754;17.714;2024-03-02T12:40:10;7.63;;;6.93;;
83245;SDS011;73140;46.754;17.714;2024-03-02T12:42:37;8.45;;;7.65;;
83245;SDS011;73140;46.754;17.714;2024-03-02T12:45:03;7.80;;;7.10;;
83245;SDS011;73140;46.754;17.714;2024-03-02T12:47:30;7.90;;;7.20;;
83245;SDS011;73140;46.754;17.714;2024-03-02T12:49:58;7.72;;;7.03;;
83245;SDS011;73140;46.754;17.714;2024-03-02T12:52:25;7.57;;;6.90;;
83245;SDS011;73140;46.754;17.714;2024-03-02T12:54:51;8.15;;;7.45;;
83245;SDS011;73140;46.754;17.714;2024-03-02T12:57:18;8.27;;;7.57;;
83245;SDS011;73140;46.754;17.714;2024-03-02T12:59:45;7.75;;;7.15;;
83245;SDS011;73140;46.754;17.714;2024-03-02T13:02:16;7.47;;;6.78;;
83245;SDS011;73140;46.754;17.714;2024-03-02T13:04:42;7.82;;;7.15;;
83245;SDS011;73140;46.754;17.714;2024-03-02T13:07:10;8.60;;;7.80;;
83245;SDS011;73140;46.754;17.714;2024-03-02T13:09:39;8.57;;;7.78;;
83245;SDS011;73140;46.754;17.714;2024-03-02T13:12:05;8.50;;;7.70;;
83245;SDS011;73140;46.754;17.714;2024-03-02T13:14:32;8.50;;;7.70;;
83245;SDS011;73140;46.754;17.714;2024-03-02T13:16:58;8.93;;;8.13;;
83245;SDS011;73140;46.754;17.714;2024-03-02T13:19:25;9.13;;;8.23;;
83245;SDS011;73140;46.754;17.714;2024-03-02T13:21:54;9.60;;;8.73;;
83245;SDS011;73140;46.754;17.714;2024-03-02T13:24:21;9.50;;;8.60;;
83245;SDS011;73140;46.754;17.714;2024-03-02T13:26:50;8.48;;;7.68;;
83245;SDS011;73140;46.754;17.714;2024-03-02T13:29:20;8.95;;;8.15;;
83245;SDS011;73140;46.754;17.714;2024-03-02T13:31:46;8.35;;;7.63;;
83245;SDS011;73140;46.754;17.714;2024-03-02T13:34:12;9.60;;;8.70;;
83245;SDS011;73140;46.754;17.714;2024-03-02T13:36:38;8.73;;;7.93;;
83245;SDS011;73140;46.754;17.714;2024-03-02T13:39:04;8.57;;;7.88;;
83245;SDS011;73140;46.754;17.714;2024-03-02T13:41:37;8.80;;;8.00;;
83245;SDS011;73140;46.754;17.714;2024-03-02T13:44:03;8.75;;;7.88;;
83245;SDS011;73140;46.754;17.714;2024-03-02T13:46:29;8.80;;;7.93;;
83245;SDS011;73140;46.754;17.714;2024-03-02T13:48:55;8.95;;;8.15;;
83245;SDS011;73140;46.754;17.714;2024-03-02T13:51:24;9.30;;;8.40;;
83245;SDS011;73140;46.754;17.714;2024-03-02T13:53:50;8.85;;;8.05;;
83245;SDS011;73140;46.754;17.714;2024-03-02T13:56:16;8.32;;;7.63;;
83245;SDS011;73140;46.754;17.714;2024-03-02T13:58:44;9.23;;;8.43;;
83245;SDS011;73140;46.754;17.714;2024-03-02T14:01:11;8.70;;;7.90;;
83245;SDS011;73140;46.754;17.714;2024-03-02T14:03:37;8.93;;;8.02;;
83245;SDS011;73140;46.754;17.714;2024-03-02T14:06:03;8.43;;;7.70;;
83245;SDS011;73140;46.754;17.714;2024-03-02T14:08:30;8.70;;;7.90;;
83245;SDS011;73140;46.754;17.714;2024-03-02T14:10:55;8.55;;;7.85;;
83245;SDS011;73140;46.754;17.714;2024-03-02T14:13:25;8.80;;;8.00;;
83245;SDS011;73140;46.754;17.714;2024-03-02T14:15:53;8.65;;;7.85;;
83245;SDS011;73140;46.754;17.714;2024-03-02T14:18:19;9.05;;;8.13;;
83245;SDS011;73140;46.754;17.714;2024-03-02T14:20:46;9.18;;;8.38;;
83245;SDS011;73140;46.754;17.714;2024-03-02T14:23:17;9.70;;;8.80;;
83245;SDS011;73140;46.754;17.714;2024-03-02T14:25:44;9.15;;;8.32;;
83245;SDS011;73140;46.754;17.714;2024-03-02T14:28:10;9.07;;;8.18;;
83245;SDS011;73140;46.754;17.714;2024-03-02T14:30:37;8.82;;;8.02;;
83245;SDS011;73140;46.754;17.714;2024-03-02T14:33:05;9.35;;;8.55;;
83245;SDS011;73140;46.754;17.714;2024-03-02T14:35:31;9.13;;;8.30;;
83245;SDS011;73140;46.754;17.714;2024-03-02T14:37:57;8.68;;;7.88;;